sensor_id;sensor_type;location;lat;lon;timestamp;pressure;altitude;pressure_sealevel;temperature;humidity
60832;BME280;46665;51.558;-0.448;2022-11-18T00:02:19;98657.69;;;7.16;100.00
60832;BME280;46665;51.558;-0.448;2022-11-18T00:05:04;98665.00;;;7.16;100.00
60832;BME280;46665;51.558;-0.448;2022-11-18T00:07:49;98661.50;;;7.15;100.00
60832;BME280;46665;51.558;-0.448;2022-11-18T00:10:36;98665.31;;;7.14;100.00
60832;BME280;46665;51.558;-0.448;2022-11-18T00:13:20;98664.41;;;7.19;100.00
60832;BME280;46665;51.558;-0.448;2022-11-18T00:16:23;98671.53;;;7.15;100.00
60832;BME280;46665;51.558;-0.448;2022-11-18T00:19:07;98678.22;;;7.18;100.00
60832;BME280;46665;51.558;-0.448;2022-11-18T00:21:51;98679.00;;;7.18;100.00
60832;BME280;46665;51.558;-0.448;2022-11-18T00:24:36;98677.72;;;7.15;100.00
60832;BME280;46665;51.558;-0.448;2022-11-18T00:27:19;98684.13;;;7.20;100.00
60832;BME280;46665;51.558;-0.448;2022-11-18T00:30:04;98690.63;;;7.19;100.00
60832;BME280;46665;51.558;-0.448;2022-11-18T00:32:48;98689.03;;;7.18;100.00
60832;BME280;46665;51.558;-0.448;2022-11-18T00:35:32;98706.84;;;7.19;100.00
60832;BME280;46665;51.558;-0.448;2022-11-18T00:38:16;98699.25;;;7.21;100.00
60832;BME280;46665;51.558;-0.448;2022-11-18T00:41:05;98709.88;;;7.17;100.00
60832;BME280;46665;51.558;-0.448;2022-11-18T00:43:50;98706.84;;;7.19;100.00
60832;BME280;46665;51.558;-0.448;2022-11-18T00:46:33;98705.78;;;7.20;100.00
60832;BME280;46665;51.558;-0.448;2022-11-18T00:49:17;98720.72;;;7.17;100.00
60832;BME280;46665;51.558;-0.448;2022-11-18T00:52:01;98712.78;;;7.21;100.00
60832;BME280;46665;51.558;-0.448;2022-11-18T00:54:45;98724.72;;;7.20;100.00
60832;BME280;46665;51.558;-0.448;2022-11-18T00:57:29;98724.72;;;7.20;100.00
60832;BME280;46665;51.558;-0.448;2022-11-18T01:00:13;98729.00;;;7.21;100.00
60832;BME280;46665;51.558;-0.448;2022-11-18T01:02:57;98731.09;;;7.24;100.00
60832;BME280;46665;51.558;-0.448;2022-11-18T01:05:41;98726.69;;;7.28;100.00
60832;BME280;46665;51.558;-0.448;2022-11-18T01:08:25;98723.97;;;7.28;100.00
60832;BME280;46665;51.558;-0.448;2022-11-18T01:11:09;98733.69;;;7.29;100.00
60832;BME280;46665;51.558;-0.448;2022-11-18T01:14:12;98741.22;;;7.32;100.00
60832;BME280;46665;51.558;-0.448;2022-11-18T01:16:57;98731.97;;;7.33;100.00
60832;BME280;46665;51.558;-0.448;2022-11-18T01:19:41;98748.69;;;7.35;100.00
60832;BME280;46665;51.558;-0.448;2022-11-18T01:22:24;98750.28;;;7.36;100.00
60832;BME280;46665;51.558;-0.448;2022-11-18T01:25:08;98760.03;;;7.37;100.00
60832;BME280;46665;51.558;-0.448;2022-11-18T01:27:52;98753.78;;;7.36;100.00
60832;BME280;46665;51.558;-0.448;2022-11-18T01:30:39;98761.13;;;7.36;100.00
60832;BME280;46665;51.558;-0.448;2022-11-18T01:33:23;98766.03;;;7.34;100.00
60832;BME280;46665;51.558;-0.448;2022-11-18T01:36:19;98779.16;;;7.41;100.00
60832;BME280;46665;51.558;-0.448;2022-11-18T01:39:03;98781.69;;;7.37;100.00
60832;BME280;46665;51.558;-0.448;2022-11-18T01:41:47;98770.84;;;7.37;100.00
60832;BME280;46665;51.558;-0.448;2022-11-18T01:51:01;98792.16;;;7.38;100.00
60832;BME280;46665;51.558;-0.448;2022-11-18T01:53:51;98791.09;;;7.40;100.00
60832;BME280;46665;51.558;-0.448;2022-11-18T01:56:41;98794.88;;;7.38;100.00
60832;BME280;46665;51.558;-0.448;2022-11-18T01:59:29;98803.91;;;7.34;100.00
60832;BME280;46665;51.558;-0.448;2022-11-18T02:02:14;98804.53;;;7.31;100.00
60832;BME280;46665;51.558;-0.448;2022-11-18T02:04:59;98805.63;;;7.30;100.00
60832;BME280;46665;51.558;-0.448;2022-11-18T02:07:45;98808.34;;;7.30;100.00
60832;BME280;46665;51.558;-0.448;2022-11-18T02:10:29;98811.03;;;7.30;100.00
60832;BME280;46665;51.558;-0.448;2022-11-18T02:13:13;98815.34;;;7.31;100.00
60832;BME280;46665;51.558;-0.448;2022-11-18T02:16:07;98813.53;;;7.26;100.00
60832;BME280;46665;51.558;-0.448;2022-11-18T02:19:00;98814.38;;;7.27;100.00
60832;BME280;46665;51.558;-0.448;2022-11-18T02:30:31;98836.69;;;7.19;100.00
60832;BME280;46665;51.558;-0.448;2022-11-18T02:33:23;98842.44;;;7.17;100.00
60832;BME280;46665;51.558;-0.448;2022-11-18T02:36:19;98839.00;;;7.11;100.00
60832;BME280;46665;51.558;-0.448;2022-11-18T02:39:09;98848.53;;;7.09;100.00
60832;BME280;46665;51.558;-0.448;2022-11-18T02:41:55;98846.44;;;7.06;100.00
60832;BME280;46665;51.558;-0.448;2022-11-18T02:44:45;98852.63;;;7.06;100.00
60832;BME280;46665;51.558;-0.448;2022-11-18T02:47:31;98859.66;;;7.07;100.00
60832;BME280;46665;51.558;-0.448;2022-11-18T02:50:23;98857.25;;;7.06;100.00
60832;BME280;46665;51.558;-0.448;2022-11-18T02:53:10;98852.06;;;7.09;100.00
60832;BME280;46665;51.558;-0.448;2022-11-18T02:55:56;98859.44;;;7.04;100.00
60832;BME280;46665;51.558;-0.448;2022-11-18T02:58:42;98858.88;;;7.07;100.00
60832;BME280;46665;51.558;-0.448;2022-11-18T03:01:28;98864.56;;;7.05;100.00
60832;BME280;46665;51.558;-0.448;2022-11-18T03:04:15;98869.47;;;7.03;100.00
60832;BME280;46665;51.558;-0.448;2022-11-18T03:07:04;98874.09;;;7.03;100.00
60832;BME280;46665;51.558;-0.448;2022-11-18T03:09:54;98879.78;;;7.01;100.00
60832;BME280;46665;51.558;-0.448;2022-11-18T03:12:45;98873.78;;;7.04;100.00
60832;BME280;46665;51.558;-0.448;2022-11-18T03:15:59;98872.97;;;7.04;100.00
60832;BME280;46665;51.558;-0.448;2022-11-18T03:19:16;98883.22;;;7.07;100.00
60832;BME280;46665;51.558;-0.448;2022-11-18T03:22:16;98878.09;;;7.05;100.00
60832;BME280;46665;51.558;-0.448;2022-11-18T03:25:08;98889.41;;;7.07;100.00
60832;BME280;46665;51.558;-0.448;2022-11-18T03:30:59;98892.72;;;7.04;100.00
60832;BME280;46665;51.558;-0.448;2022-11-18T03:33:48;98895.22;;;7.01;100.00
60832;BME280;46665;51.558;-0.448;2022-11-18T03:36:38;98900.44;;;6.97;100.00
60832;BME280;46665;51.558;-0.448;2022-11-18T03:39:25;98906.91;;;6.96;100.00
60832;BME280;46665;51.558;-0.448;2022-11-18T03:42:28;98905.13;;;6.91;100.00
60832;BME280;46665;51.558;-0.448;2022-11-18T03:45:27;98907.63;;;6.88;100.00
60832;BME280;46665;51.558;-0.448;2022-11-18T03:48:16;98917.94;;;6.86;100.00
60832;BME280;46665;51.558;-0.448;2022-11-18T03:51:05;98917.94;;;6.86;100.00
60832;BME280;46665;51.558;-0.448;2022-11-18T03:53:54;98925.25;;;6.85;100.00
60832;BME280;46665;51.558;-0.448;2022-11-18T03:56:48;98928.03;;;6.80;100.00
60832;BME280;46665;51.558;-0.448;2022-11-18T03:59:38;98927.06;;;6.76;100.00
60832;BME280;46665;51.558;-0.448;2022-11-18T04:02:25;98938.16;;;6.75;100.00
60832;BME280;46665;51.558;-0.448;2022-11-18T04:05:12;98946.84;;;6.71;100.00
60832;BME280;46665;51.558;-0.448;2022-11-18T04:07:59;98947.66;;;6.72;100.00
60832;BME280;46665;51.558;-0.448;2022-11-18T04:10:51;98950.16;;;6.68;100.00
60832;BME280;46665;51.558;-0.448;2022-11-18T04:13:37;98946.44;;;6.64;100.00
60832;BME280;46665;51.558;-0.448;2022-11-18T04:16:22;98959.88;;;6.69;100.00
60832;BME280;46665;51.558;-0.448;2022-11-18T04:19:06;98969.09;;;6.68;100.00
60832;BME280;46665;51.558;-0.448;2022-11-18T04:21:50;98969.88;;;6.69;100.00
60832;BME280;46665;51.558;-0.448;2022-11-18T04:24:34;98973.88;;;6.71;100.00
60832;BME280;46665;51.558;-0.448;2022-11-18T04:27:19;98978.69;;;6.75;100.00
60832;BME280;46665;51.558;-0.448;2022-11-18T04:30:04;98986.00;;;6.74;100.00
60832;BME280;46665;51.558;-0.448;2022-11-18T04:32:48;98992.22;;;6.75;100.00
60832;BME280;46665;51.558;-0.448;2022-11-18T04:35:32;98991.09;;;6.76;100.00
60832;BME280;46665;51.558;-0.448;2022-11-18T04:38:16;98995.44;;;6.77;100.00
60832;BME280;46665;51.558;-0.448;2022-11-18T04:41:00;98996.44;;;6.81;100.00
60832;BME280;46665;51.558;-0.448;2022-11-18T04:43:44;99008.34;;;6.80;100.00
60832;BME280;46665;51.558;-0.448;2022-11-18T04:46:28;98993.44;;;6.82;100.00
60832;BME280;46665;51.558;-0.448;2022-11-18T04:49:13;99008.25;;;6.85;100.00
60832;BME280;46665;51.558;-0.448;2022-11-18T04:51:58;99019.88;;;6.85;100.00
60832;BME280;46665;51.558;-0.448;2022-11-18T04:54:42;99008.78;;;6.87;100.00
60832;BME280;46665;51.558;-0.448;2022-11-18T04:57:26;99012.78;;;6.89;100.00
60832;BME280;46665;51.558;-0.448;2022-11-18T05:00:11;99014.69;;;6.89;100.00
60832;BME280;46665;51.558;-0.448;2022-11-18T05:02:55;99018.09;;;6.94;100.00
60832;BME280;46665;51.558;-0.448;2022-11-18T05:05:39;99026.00;;;6.91;100.00
60832;BME280;46665;51.558;-0.448;2022-11-18T05:08:23;99034.94;;;6.91;100.00
60832;BME280;46665;51.558;-0.448;2022-11-18T05:11:08;99044.44;;;6.89;100.00
60832;BME280;46665;51.558;-0.448;2022-11-18T05:14:11;99043.59;;;6.88;100.00
60832;BME280;46665;51.558;-0.448;2022-11-18T05:17:01;99045.53;;;6.88;100.00
60832;BME280;46665;51.558;-0.448;2022-11-18T05:19:46;99053.53;;;6.93;100.00
60832;BME280;46665;51.558;-0.448;2022-11-18T05:22:30;99051.56;;;6.99;100.00
60832;BME280;46665;51.558;-0.448;2022-11-18T05:25:14;99054.84;;;6.95;100.00
60832;BME280;46665;51.558;-0.448;2022-11-18T05:27:58;99059.47;;;6.95;100.00
60832;BME280;46665;51.558;-0.448;2022-11-18T05:30:42;99061.88;;;6.97;100.00
60832;BME280;46665;51.558;-0.448;2022-11-18T05:33:26;99062.09;;;7.00;100.00
60832;BME280;46665;51.558;-0.448;2022-11-18T05:36:12;99070.81;;;6.97;100.00
60832;BME280;46665;51.558;-0.448;2022-11-18T05:38:57;99066.97;;;6.98;100.00
60832;BME280;46665;51.558;-0.448;2022-11-18T05:41:41;99078.91;;;6.97;100.00
60832;BME280;46665;51.558;-0.448;2022-11-18T05:44:44;99087.63;;;6.94;100.00
60832;BME280;46665;51.558;-0.448;2022-11-18T05:47:28;99084.09;;;6.93;100.00
60832;BME280;46665;51.558;-0.448;2022-11-18T05:50:35;99083.28;;;6.93;100.00
60832;BME280;46665;51.558;-0.448;2022-11-18T05:53:20;99092.78;;;6.90;100.00
60832;BME280;46665;51.558;-0.448;2022-11-18T05:56:15;99094.97;;;6.88;100.00
60832;BME280;46665;51.558;-0.448;2022-11-18T05:59:01;99096.97;;;6.83;100.00
60832;BME280;46665;51.558;-0.448;2022-11-18T06:02:01;99100.00;;;6.81;100.00
60832;BME280;46665;51.558;-0.448;2022-11-18T06:04:56;99119.19;;;6.80;100.00
60832;BME280;46665;51.558;-0.448;2022-11-18T06:07:43;99121.47;;;6.72;100.00
60832;BME280;46665;51.558;-0.448;2022-11-18T06:10:30;99122.13;;;6.64;100.00
60832;BME280;46665;51.558;-0.448;2022-11-18T06:13:23;99126.81;;;6.59;100.00
60832;BME280;46665;51.558;-0.448;2022-11-18T06:16:11;99133.06;;;6.54;100.00
60832;BME280;46665;51.558;-0.448;2022-11-18T06:18:55;99133.41;;;6.47;100.00
60832;BME280;46665;51.558;-0.448;2022-11-18T06:21:40;99137.28;;;6.41;100.00
60832;BME280;46665;51.558;-0.448;2022-11-18T06:24:25;99142.75;;;6.36;100.00
60832;BME280;46665;51.558;-0.448;2022-11-18T06:27:10;99154.66;;;6.35;100.00
60832;BME280;46665;51.558;-0.448;2022-11-18T06:29:55;99153.13;;;6.29;100.00
60832;BME280;46665;51.558;-0.448;2022-11-18T06:32:39;99165.03;;;6.28;100.00
60832;BME280;46665;51.558;-0.448;2022-11-18T06:35:23;99178.28;;;6.24;100.00
60832;BME280;46665;51.558;-0.448;2022-11-18T06:38:07;99175.91;;;6.23;100.00
60832;BME280;46665;51.558;-0.448;2022-11-18T06:40:51;99180.25;;;6.19;100.00
60832;BME280;46665;51.558;-0.448;2022-11-18T06:43:35;99188.09;;;6.15;100.00
60832;BME280;46665;51.558;-0.448;2022-11-18T06:46:24;99184.66;;;6.10;100.00
60832;BME280;46665;51.558;-0.448;2022-11-18T06:49:27;99201.16;;;6.08;100.00
60832;BME280;46665;51.558;-0.448;2022-11-18T06:52:11;99204.66;;;6.08;100.00
60832;BME280;46665;51.558;-0.448;2022-11-18T06:54:55;99212.53;;;6.05;100.00
60832;BME280;46665;51.558;-0.448;2022-11-18T06:57:39;99215.75;;;6.07;100.00
60832;BME280;46665;51.558;-0.448;2022-11-18T07:00:23;99211.72;;;6.04;100.00
60832;BME280;46665;51.558;-0.448;2022-11-18T07:03:07;99222.78;;;6.08;100.00
60832;BME280;46665;51.558;-0.448;2022-11-18T07:05:51;99231.16;;;6.06;100.00
60832;BME280;46665;51.558;-0.448;2022-11-18T07:08:36;99228.66;;;6.10;100.00
60832;BME280;46665;51.558;-0.448;2022-11-18T07:11:23;99237.06;;;6.08;100.00
60832;BME280;46665;51.558;-0.448;2022-11-18T07:14:08;99245.72;;;6.11;100.00
60832;BME280;46665;51.558;-0.448;2022-11-18T07:16:52;99250.28;;;6.10;100.00
60832;BME280;46665;51.558;-0.448;2022-11-18T07:19:37;99257.59;;;6.10;100.00
60832;BME280;46665;51.558;-0.448;2022-11-18T07:22:21;99263.28;;;6.08;100.00
60832;BME280;46665;51.558;-0.448;2022-11-18T07:25:05;99271.66;;;6.06;100.00
60832;BME280;46665;51.558;-0.448;2022-11-18T07:27:49;99268.72;;;6.03;100.00
60832;BME280;46665;51.558;-0.448;2022-11-18T07:30:33;99281.66;;;6.06;100.00
60832;BME280;46665;51.558;-0.448;2022-11-18T07:33:17;99289.25;;;6.04;100.00
60832;BME280;46665;51.558;-0.448;2022-11-18T07:36:10;99296.81;;;6.02;100.00
60832;BME280;46665;51.558;-0.448;2022-11-18T07:38:58;99312.44;;;6.05;100.00
60832;BME280;46665;51.558;-0.448;2022-11-18T07:41:43;99302.50;;;6.00;100.00
60832;BME280;46665;51.558;-0.448;2022-11-18T07:44:27;99321.13;;;6.02;100.00
60832;BME280;46665;51.558;-0.448;2022-11-18T07:47:11;99319.25;;;5.97;100.00
60832;BME280;46665;51.558;-0.448;2022-11-18T07:49:54;99320.59;;;6.00;100.00
60832;BME280;46665;51.558;-0.448;2022-11-18T07:52:39;99329.78;;;5.99;100.00
60832;BME280;46665;51.558;-0.448;2022-11-18T07:55:23;99333.00;;;6.01;100.00
60832;BME280;46665;51.558;-0.448;2022-11-18T07:58:07;99340.59;;;5.99;100.00
60832;BME280;46665;51.558;-0.448;2022-11-18T08:00:51;99351.06;;;6.05;100.00
60832;BME280;46665;51.558;-0.448;2022-11-18T08:03:36;99358.31;;;6.10;100.00
60832;BME280;46665;51.558;-0.448;2022-11-18T08:06:20;99358.56;;;6.14;100.00
60832;BME280;46665;51.558;-0.448;2022-11-18T08:09:05;99357.47;;;6.15;100.00
60832;BME280;46665;51.558;-0.448;2022-11-18T08:11:49;99369.91;;;6.16;100.00
60832;BME280;46665;51.558;-0.448;2022-11-18T08:14:33;99372.81;;;6.19;100.00
60832;BME280;46665;51.558;-0.448;2022-11-18T08:17:20;99380.09;;;6.24;100.00
60832;BME280;46665;51.558;-0.448;2022-11-18T08:20:04;99377.34;;;6.29;100.00
60832;BME280;46665;51.558;-0.448;2022-11-18T08:22:48;99380.84;;;6.29;100.00
60832;BME280;46665;51.558;-0.448;2022-11-18T08:25:32;99388.94;;;6.29;100.00
60832;BME280;46665;51.558;-0.448;2022-11-18T08:28:16;99399.75;;;6.29;100.00
60832;BME280;46665;51.558;-0.448;2022-11-18T08:31:17;99400.84;;;6.28;100.00
60832;BME280;46665;51.558;-0.448;2022-11-18T08:34:04;99407.84;;;6.29;100.00
60832;BME280;46665;51.558;-0.448;2022-11-18T08:36:48;99415.97;;;6.29;100.00
60832;BME280;46665;51.558;-0.448;2022-11-18T08:39:32;99414.06;;;6.30;100.00
60832;BME280;46665;51.558;-0.448;2022-11-18T08:42:16;99416.50;;;6.32;100.00
60832;BME280;46665;51.558;-0.448;2022-11-18T08:45:05;99413.78;;;6.32;100.00
60832;BME280;46665;51.558;-0.448;2022-11-18T08:47:51;99415.91;;;6.35;100.00
60832;BME280;46665;51.558;-0.448;2022-11-18T08:50:35;99418.00;;;6.43;100.00
60832;BME280;46665;51.558;-0.448;2022-11-18T08:53:19;99429.88;;;6.47;100.00
60832;BME280;46665;51.558;-0.448;2022-11-18T08:56:03;99424.44;;;6.52;100.00
60832;BME280;46665;51.558;-0.448;2022-11-18T08:58:47;99433.59;;;6.56;100.00
60832;BME280;46665;51.558;-0.448;2022-11-18T09:01:31;99429.50;;;6.59;100.00
60832;BME280;46665;51.558;-0.448;2022-11-18T09:04:16;99435.38;;;6.66;100.00
60832;BME280;46665;51.558;-0.448;2022-11-18T09:07:00;99442.94;;;6.69;100.00
60832;BME280;46665;51.558;-0.448;2022-11-18T09:09:44;99442.88;;;6.74;100.00
60832;BME280;46665;51.558;-0.448;2022-11-18T09:12:29;99446.91;;;6.77;100.00
60832;BME280;46665;51.558;-0.448;2022-11-18T09:15:13;99444.16;;;6.82;100.00
60832;BME280;46665;51.558;-0.448;2022-11-18T09:17:56;99449.53;;;6.87;100.00
60832;BME280;46665;51.558;-0.448;2022-11-18T09:20:40;99446.81;;;6.87;100.00
60832;BME280;46665;51.558;-0.448;2022-11-18T09:23:26;99458.13;;;6.94;100.00
60832;BME280;46665;51.558;-0.448;2022-11-18T09:26:13;99459.72;;;6.95;100.00
60832;BME280;46665;51.558;-0.448;2022-11-18T09:28:57;99460.19;;;7.02;100.00
60832;BME280;46665;51.558;-0.448;2022-11-18T09:31:40;99458.00;;;7.04;100.00
60832;BME280;46665;51.558;-0.448;2022-11-18T09:34:24;99462.31;;;7.05;100.00
60832;BME280;46665;51.558;-0.448;2022-11-18T09:37:08;99466.53;;;7.16;100.00
60832;BME280;46665;51.558;-0.448;2022-11-18T09:39:52;99472.38;;;7.24;100.00
60832;BME280;46665;51.558;-0.448;2022-11-18T09:43:02;99492.91;;;7.30;100.00
60832;BME280;46665;51.558;-0.448;2022-11-18T09:45:56;99485.59;;;7.30;100.00
60832;BME280;46665;51.558;-0.448;2022-11-18T09:48:43;99496.88;;;7.37;100.00
60832;BME280;46665;51.558;-0.448;2022-11-18T09:51:48;99500.59;;;7.42;100.00
60832;BME280;46665;51.558;-0.448;2022-11-18T09:54:34;99498.94;;;7.46;100.00
60832;BME280;46665;51.558;-0.448;2022-11-18T09:57:25;99496.97;;;7.51;100.00
60832;BME280;46665;51.558;-0.448;2022-11-18T10:00:38;99519.03;;;7.64;100.00
60832;BME280;46665;51.558;-0.448;2022-11-18T10:03:29;99519.03;;;7.64;100.00
60832;BME280;46665;51.558;-0.448;2022-11-18T10:09:29;99523.00;;;7.71;100.00
60832;BME280;46665;51.558;-0.448;2022-11-18T10:15:30;99535.03;;;7.84;100.00
60832;BME280;46665;51.558;-0.448;2022-11-18T10:18:39;99550.94;;;7.91;100.00
60832;BME280;46665;51.558;-0.448;2022-11-18T10:24:36;99558.44;;;7.99;100.00
60832;BME280;46665;51.558;-0.448;2022-11-18T10:27:26;99560.53;;;8.02;100.00
60832;BME280;46665;51.558;-0.448;2022-11-18T10:30:24;99573.75;;;8.09;100.00
60832;BME280;46665;51.558;-0.448;2022-11-18T10:39:15;99569.16;;;8.28;100.00
60832;BME280;46665;51.558;-0.448;2022-11-18T10:42:02;99563.44;;;8.30;100.00
60832;BME280;46665;51.558;-0.448;2022-11-18T10:44:47;99574.72;;;8.37;100.00
60832;BME280;46665;51.558;-0.448;2022-11-18T10:47:31;99575.41;;;8.48;100.00
60832;BME280;46665;51.558;-0.448;2022-11-18T10:50:34;99586.13;;;8.58;100.00
60832;BME280;46665;51.558;-0.448;2022-11-18T10:53:36;99583.13;;;8.59;100.00
60832;BME280;46665;51.558;-0.448;2022-11-18T10:56:20;99586.28;;;8.66;100.00
60832;BME280;46665;51.558;-0.448;2022-11-18T10:59:04;99598.88;;;8.76;100.00
60832;BME280;46665;51.558;-0.448;2022-11-18T11:02:28;99583.00;;;8.83;100.00
60832;BME280;46665;51.558;-0.448;2022-11-18T11:05:19;99589.69;;;8.91;100.00
60832;BME280;46665;51.558;-0.448;2022-11-18T11:08:20;99586.31;;;8.99;100.00
60832;BME280;46665;51.558;-0.448;2022-11-18T11:11:04;99588.94;;;9.04;100.00
60832;BME280;46665;51.558;-0.448;2022-11-18T11:14:45;99591.78;;;9.13;100.00
60832;BME280;46665;51.558;-0.448;2022-11-18T11:20:22;99592.41;;;9.24;100.00
60832;BME280;46665;51.558;-0.448;2022-11-18T11:23:11;99595.25;;;9.32;100.00
60832;BME280;46665;51.558;-0.448;2022-11-18T11:26:02;99597.28;;;9.41;100.00
60832;BME280;46665;51.558;-0.448;2022-11-18T11:28:52;99604.44;;;9.50;100.00
60832;BME280;46665;51.558;-0.448;2022-11-18T11:37:50;99608.28;;;9.63;100.00
60832;BME280;46665;51.558;-0.448;2022-11-18T11:40:39;99615.63;;;9.76;100.00
60832;BME280;46665;51.558;-0.448;2022-11-18T11:43:51;99617.97;;;9.83;100.00
60832;BME280;46665;51.558;-0.448;2022-11-18T11:46:54;99621.09;;;9.90;100.00
60832;BME280;46665;51.558;-0.448;2022-11-18T11:50:11;99633.47;;;9.96;97.70
60832;BME280;46665;51.558;-0.448;2022-11-18T11:53:14;99627.75;;;9.98;97.24
60832;BME280;46665;51.558;-0.448;2022-11-18T11:56:11;99627.63;;;10.03;95.00
60832;BME280;46665;51.558;-0.448;2022-11-18T12:05:19;99638.09;;;10.24;93.71
60832;BME280;46665;51.558;-0.448;2022-11-18T12:08:24;99641.53;;;10.29;94.68
60832;BME280;46665;51.558;-0.448;2022-11-18T12:11:36;99646.69;;;10.31;93.26
60832;BME280;46665;51.558;-0.448;2022-11-18T12:14:34;99643.53;;;10.24;89.58
60832;BME280;46665;51.558;-0.448;2022-11-18T12:17:25;99644.03;;;10.26;88.85
60832;BME280;46665;51.558;-0.448;2022-11-18T12:20:45;99652.19;;;10.26;88.40
60832;BME280;46665;51.558;-0.448;2022-11-18T12:23:31;99653.72;;;10.18;88.56
60832;BME280;46665;51.558;-0.448;2022-11-18T12:26:33;99657.34;;;10.13;89.03
60832;BME280;46665;51.558;-0.448;2022-11-18T12:32:02;99658.41;;;10.12;89.88
60832;BME280;46665;51.558;-0.448;2022-11-18T12:34:58;99672.94;;;10.08;89.61
60832;BME280;46665;51.558;-0.448;2022-11-18T12:40:44;99673.00;;;9.89;90.18
60832;BME280;46665;51.558;-0.448;2022-11-18T12:55:25;99689.81;;;9.91;91.18
60832;BME280;46665;51.558;-0.448;2022-11-18T12:58:21;99709.47;;;10.02;91.27
60832;BME280;46665;51.558;-0.448;2022-11-18T13:01:10;99702.63;;;10.04;91.50
60832;BME280;46665;51.558;-0.448;2022-11-18T13:04:24;99703.94;;;10.07;91.47
60832;BME280;46665;51.558;-0.448;2022-11-18T13:07:12;99704.94;;;10.11;91.18
60832;BME280;46665;51.558;-0.448;2022-11-18T13:10:21;99712.31;;;10.10;91.09
60832;BME280;46665;51.558;-0.448;2022-11-18T13:13:22;99713.72;;;10.08;91.75
60832;BME280;46665;51.558;-0.448;2022-11-18T13:16:26;99705.84;;;10.06;92.12
60832;BME280;46665;51.558;-0.448;2022-11-18T13:19:29;99711.88;;;10.03;90.30
60832;BME280;46665;51.558;-0.448;2022-11-18T13:22:17;99719.25;;;10.03;91.74
60832;BME280;46665;51.558;-0.448;2022-11-18T13:25:24;99721.97;;;10.03;92.04
60832;BME280;46665;51.558;-0.448;2022-11-18T13:31:30;99710.06;;;9.98;93.58
60832;BME280;46665;51.558;-0.448;2022-11-18T13:34:19;99725.78;;;10.02;93.17
60832;BME280;46665;51.558;-0.448;2022-11-18T13:37:10;99731.81;;;9.98;92.52
60832;BME280;46665;51.558;-0.448;2022-11-18T13:39:57;99734.63;;;9.93;92.38
60832;BME280;46665;51.558;-0.448;2022-11-18T13:42:43;99724.34;;;9.90;93.53
60832;BME280;46665;51.558;-0.448;2022-11-18T13:45:28;99739.63;;;9.86;92.86
60832;BME280;46665;51.558;-0.448;2022-11-18T13:48:13;99738.31;;;9.84;92.25
60832;BME280;46665;51.558;-0.448;2022-11-18T13:50:59;99731.13;;;9.74;93.00
60832;BME280;46665;51.558;-0.448;2022-11-18T13:53:44;99738.13;;;9.80;92.94
60832;BME280;46665;51.558;-0.448;2022-11-18T13:56:28;99746.47;;;9.84;93.88
60832;BME280;46665;51.558;-0.448;2022-11-18T13:59:19;99749.09;;;9.89;93.81
60832;BME280;46665;51.558;-0.448;2022-11-18T14:02:09;99760.38;;;9.96;94.17
60832;BME280;46665;51.558;-0.448;2022-11-18T14:04:57;99761.91;;;10.02;93.92
60832;BME280;46665;51.558;-0.448;2022-11-18T14:08:38;99771.09;;;10.06;93.60
60832;BME280;46665;51.558;-0.448;2022-11-18T14:10:58;99771.09;;;10.06;92.98
60832;BME280;46665;51.558;-0.448;2022-11-18T14:13:51;99779.44;;;10.10;92.85
60832;BME280;46665;51.558;-0.448;2022-11-18T14:16:38;99777.47;;;10.15;92.58
60832;BME280;46665;51.558;-0.448;2022-11-18T14:19:31;99777.66;;;10.19;93.01
60832;BME280;46665;51.558;-0.448;2022-11-18T14:22:21;99776.25;;;10.22;92.67
60832;BME280;46665;51.558;-0.448;2022-11-18T14:25:23;99781.06;;;10.25;93.69
60832;BME280;46665;51.558;-0.448;2022-11-18T14:28:12;99784.53;;;10.30;94.48
60832;BME280;46665;51.558;-0.448;2022-11-18T14:36:58;99788.16;;;10.26;93.54
60832;BME280;46665;51.558;-0.448;2022-11-18T14:39:53;99796.88;;;10.23;94.92
60832;BME280;46665;51.558;-0.448;2022-11-18T14:42:38;99801.31;;;10.18;93.87
60832;BME280;46665;51.558;-0.448;2022-11-18T14:45:22;99807.34;;;10.15;94.10
60832;BME280;46665;51.558;-0.448;2022-11-18T14:48:10;99802.00;;;10.10;94.54
60832;BME280;46665;51.558;-0.448;2022-11-18T14:50:55;99815.69;;;10.05;95.10
60832;BME280;46665;51.558;-0.448;2022-11-18T14:53:39;99814.38;;;10.03;95.27
60832;BME280;46665;51.558;-0.448;2022-11-18T14:56:30;99822.00;;;10.01;95.04
60832;BME280;46665;51.558;-0.448;2022-11-18T14:59:17;99824.50;;;9.97;96.71
60832;BME280;46665;51.558;-0.448;2022-11-18T15:02:02;99831.66;;;9.93;97.73
60832;BME280;46665;51.558;-0.448;2022-11-18T15:04:46;99832.53;;;9.88;99.13
60832;BME280;46665;51.558;-0.448;2022-11-18T15:07:31;99836.66;;;9.86;96.92
60832;BME280;46665;51.558;-0.448;2022-11-18T15:10:16;99839.13;;;9.82;98.28
60832;BME280;46665;51.558;-0.448;2022-11-18T15:13:00;99850.84;;;9.83;97.51
60832;BME280;46665;51.558;-0.448;2022-11-18T15:15:44;99850.59;;;9.79;98.01
60832;BME280;46665;51.558;-0.448;2022-11-18T15:18:28;99851.00;;;9.72;98.09
60832;BME280;46665;51.558;-0.448;2022-11-18T15:21:13;99857.75;;;9.75;98.49
60832;BME280;46665;51.558;-0.448;2022-11-18T15:23:57;99858.31;;;9.72;98.59
60832;BME280;46665;51.558;-0.448;2022-11-18T15:26:44;99864.34;;;9.69;99.22
60832;BME280;46665;51.558;-0.448;2022-11-18T15:29:28;99868.97;;;9.68;100.00
60832;BME280;46665;51.558;-0.448;2022-11-18T15:32:12;99866.03;;;9.65;100.00
60832;BME280;46665;51.558;-0.448;2022-11-18T15:34:56;99875.28;;;9.64;100.00
60832;BME280;46665;51.558;-0.448;2022-11-18T15:37:40;99886.44;;;9.62;100.00
60832;BME280;46665;51.558;-0.448;2022-11-18T15:40:24;99890.25;;;9.61;100.00
60832;BME280;46665;51.558;-0.448;2022-11-18T15:43:08;99897.06;;;9.59;100.00
60832;BME280;46665;51.558;-0.448;2022-11-18T15:45:56;99893.03;;;9.56;100.00
60832;BME280;46665;51.558;-0.448;2022-11-18T15:48:41;99903.38;;;9.54;100.00
60832;BME280;46665;51.558;-0.448;2022-11-18T15:51:26;99909.91;;;9.53;100.00
60832;BME280;46665;51.558;-0.448;2022-11-18T15:54:12;99907.50;;;9.51;100.00
60832;BME280;46665;51.558;-0.448;2022-11-18T15:56:56;99906.97;;;9.49;100.00
60832;BME280;46665;51.558;-0.448;2022-11-18T15:59:40;99920.84;;;9.48;100.00